createdAt,value
2023-01-13T00:07:38.812Z,79.04
2023-01-13T00:11:42.466Z,79.10
2023-01-13T00:15:46.275Z,79.41
2023-01-13T00:19:49.964Z,79.73
2023-01-13T00:23:53.533Z,80.06
2023-01-13T00:27:59.393Z,79.71
2023-01-13T00:36:40.189Z,80.08
2023-01-13T00:40:43.877Z,79.78
2023-01-13T00:54:23.718Z,79.62
2023-01-13T00:58:36.540Z,79.65
2023-01-13T01:07:29.062Z,79.63
2023-01-13T01:11:32.702Z,79.76
2023-01-13T01:15:35.026Z,79.97
2023-01-13T01:34:21.189Z,79.53
2023-01-13T01:38:11.216Z,79.59
2023-01-13T01:42:16.345Z,79.60
2023-01-13T01:45:58.917Z,79.61
2023-01-13T01:49:53.235Z,79.53
2023-01-13T01:53:49.826Z,79.66
2023-01-13T01:57:33.264Z,79.68
2023-01-13T02:01:36.991Z,79.69
2023-01-13T02:05:58.271Z,79.75
2023-01-13T02:09:55.224Z,79.97
2023-01-13T02:14:01.770Z,79.90
2023-01-13T02:30:49.663Z,80.04
2023-01-13T02:34:59.392Z,80.06
2023-01-13T02:38:55.688Z,80.22
2023-01-13T02:43:07.045Z,80.22
2023-01-13T02:47:10.697Z,80.13
2023-01-13T02:51:07.022Z,79.96
2023-01-13T02:54:53.974Z,80.06
2023-01-13T03:03:53.258Z,80.28
2023-01-13T03:08:05.846Z,79.95
2023-01-13T03:12:06.476Z,80.39
2023-01-13T03:20:37.081Z,80.32
2023-01-13T03:24:43.602Z,80.37
2023-01-13T03:28:59.365Z,80.39
2023-01-13T03:38:04.503Z,80.65
2023-01-13T03:42:11.012Z,80.41
2023-01-13T03:46:14.646Z,80.42
2023-01-13T03:50:26.253Z,80.38
2023-01-13T03:54:29.898Z,80.29
2023-01-13T03:58:33.483Z,80.43
2023-01-13T04:02:45.917Z,80.38
2023-01-13T04:06:58.712Z,80.48
2023-01-13T04:11:02.389Z,80.31
2023-01-13T04:14:58.364Z,80.31
2023-01-13T04:19:14.127Z,80.33
2023-01-13T04:23:23.157Z,80.33
2023-01-13T04:27:26.739Z,80.46
2023-01-13T04:31:12.698Z,80.18
2023-01-13T04:46:04.400Z,80.23
2023-01-13T04:54:56.714Z,80.28
2023-01-13T04:58:43.880Z,80.36
2023-01-13T05:07:43.077Z,80.29
2023-01-13T05:26:08.806Z,80.24
2023-01-13T05:30:12.439Z,80.29
2023-01-13T05:39:11.580Z,80.34
2023-01-13T05:43:13.511Z,80.34
2023-01-13T05:47:28.394Z,80.23
2023-01-13T05:51:32.198Z,80.07
2023-01-13T06:06:43.351Z,79.98
2023-01-13T06:15:13.980Z,79.97
2023-01-13T06:19:09.243Z,79.91
2023-01-13T06:23:31.676Z,80.01
2023-01-13T06:27:35.260Z,79.77
2023-01-13T06:31:37.621Z,79.81
2023-01-13T06:35:41.390Z,79.71
2023-01-13T06:39:37.384Z,79.68
2023-01-13T06:43:41.000Z,79.70
2023-01-13T06:52:30.471Z,79.68
2023-01-13T06:56:34.083Z,79.66
2023-01-13T06:59:50.613Z,79.73
2023-01-13T07:03:36.212Z,79.61
2023-01-13T07:07:32.884Z,79.87
2023-01-13T07:11:16.416Z,79.75
2023-01-13T07:15:18.539Z,79.84
2023-01-13T07:19:05.390Z,79.87
2023-01-13T07:22:47.402Z,80.08
2023-01-13T07:26:43.382Z,79.95
2023-01-13T07:30:16.991Z,79.86
2023-01-13T07:33:36.169Z,79.94
2023-01-13T07:37:19.477Z,79.97
2023-01-13T07:41:23.655Z,80.19
2023-01-13T07:44:45.939Z,80.28
2023-01-13T07:48:31.812Z,80.05
2023-01-13T07:52:34.951Z,80.02
2023-01-13T07:56:16.768Z,80.04
2023-01-13T07:59:45.249Z,80.16
2023-01-13T08:03:40.069Z,80.29
2023-01-13T08:07:43.638Z,80.17
2023-01-13T08:11:19.824Z,80.09
2023-01-13T08:15:14.385Z,80.12
2023-01-13T08:18:54.710Z,80.16
2023-01-13T08:22:37.939Z,80.08
2023-01-13T08:26:23.874Z,80.33
2023-01-13T08:30:09.565Z,80.29
2023-01-13T08:33:53.856Z,80.20
2023-01-13T08:37:50.367Z,80.15
2023-01-13T08:41:36.769Z,80.08
2023-01-13T08:45:39.281Z,80.12
2023-01-13T08:49:39.251Z,80.06
2023-01-13T08:53:16.631Z,80.06
2023-01-13T08:57:03.287Z,80.07
2023-01-13T09:00:56.881Z,80.08
2023-01-13T09:04:55.971Z,80.12
2023-01-13T09:08:58.665Z,79.85
2023-01-13T09:13:00.768Z,80.17
2023-01-13T09:16:56.870Z,79.89
2023-01-13T09:20:59.251Z,79.86
2023-01-13T09:25:02.817Z,79.71
2023-01-13T09:29:06.419Z,79.82
2023-01-13T09:33:12.912Z,79.87
2023-01-13T09:36:53.334Z,79.74
2023-01-13T09:40:46.013Z,79.73
2023-01-13T09:44:34.917Z,79.67
2023-01-13T09:48:53.736Z,79.63
2023-01-13T09:53:00.171Z,79.67
2023-01-13T09:56:53.921Z,79.54
2023-01-13T10:01:11.172Z,79.74
2023-01-13T10:05:14.797Z,79.75
2023-01-13T10:09:18.382Z,79.64
2023-01-13T10:13:27.076Z,79.44
2023-01-13T10:17:41.154Z,79.47
2023-01-13T10:21:43.329Z,79.53
2023-01-13T10:26:12.162Z,79.32
2023-01-13T10:30:23.492Z,79.30
2023-01-13T10:34:17.608Z,79.30
2023-01-13T10:38:21.201Z,79.28
2023-01-13T10:42:24.907Z,79.25
2023-01-13T10:46:37.515Z,79.22
2023-01-13T10:50:47.597Z,78.99
2023-01-13T10:55:00.163Z,79.04
2023-01-13T10:59:19.022Z,79.25
2023-01-13T11:03:22.660Z,79.20
2023-01-13T11:07:29.171Z,79.41
2023-01-13T11:11:21.332Z,79.37
2023-01-13T11:15:21.784Z,79.52
2023-01-13T11:19:25.367Z,79.50
2023-01-13T11:23:28.435Z,79.52
2023-01-13T11:27:38.256Z,79.74
2023-01-13T11:31:26.956Z,79.54
2023-01-13T11:35:16.645Z,79.15
2023-01-13T11:39:08.074Z,79.43
2023-01-13T11:43:23.949Z,79.27
2023-01-13T11:47:20.504Z,79.29
2023-01-13T11:51:31.904Z,79.19
2023-01-13T11:55:27.777Z,79.21
2023-01-13T11:59:33.993Z,79.38
2023-01-13T12:03:29.722Z,79.37
2023-01-13T12:07:42.495Z,79.39
2023-01-13T12:11:48.305Z,79.10
2023-01-13T12:16:01.005Z,79.02
2023-01-13T12:19:35.912Z,79.08
2023-01-13T12:23:02.252Z,79.08
2023-01-13T12:27:05.916Z,79.13
2023-01-13T12:31:22.848Z,78.93
2023-01-13T12:35:48.018Z,78.96
2023-01-13T12:39:57.604Z,79.16
2023-01-13T12:44:08.817Z,79.14
2023-01-13T12:48:15.526Z,78.93
2023-01-13T12:52:37.354Z,78.94
2023-01-13T12:56:39.603Z,78.81
2023-01-13T13:00:43.163Z,78.87
2023-01-13T13:04:51.338Z,78.50
2023-01-13T13:09:09.049Z,78.57
2023-01-13T13:13:40.684Z,78.62
2023-01-13T13:18:10.514Z,78.42
2023-01-13T13:22:16.835Z,78.41
2023-01-13T13:26:10.702Z,77.40
2023-01-13T13:30:20.686Z,77.57
2023-01-13T13:34:19.391Z,77.32
2023-01-13T13:38:51.692Z,77.33
2023-01-13T13:42:44.222Z,76.84
2023-01-13T13:47:08.713Z,77.14
2023-01-13T13:51:07.316Z,77.15
2023-01-13T13:55:12.055Z,76.45
2023-01-13T13:59:14.585Z,76.33
2023-01-13T14:03:18.214Z,76.00
2023-01-13T14:07:34.055Z,75.48
2023-01-13T14:11:36.648Z,75.22
2023-01-13T14:16:18.491Z,75.22
2023-01-13T14:19:47.946Z,75.46
2023-01-13T14:23:27.995Z,75.18
2023-01-13T14:27:03.655Z,74.99
2023-01-13T14:30:50.904Z,74.64
2023-01-13T14:34:33.519Z,74.31
2023-01-13T14:38:22.921Z,74.18
2023-01-13T14:42:25.581Z,73.91
2023-01-13T14:46:28.135Z,73.74
2023-01-13T14:50:34.524Z,73.93
2023-01-13T14:54:38.387Z,74.44
2023-01-13T14:58:57.284Z,74.42
2023-01-13T15:03:06.659Z,74.82
2023-01-13T15:07:19.792Z,75.01
2023-01-13T15:11:05.680Z,74.76
2023-01-13T15:14:45.663Z,74.71
2023-01-13T15:18:42.593Z,74.97
2023-01-13T15:22:52.833Z,74.70
2023-01-13T15:27:05.499Z,74.78
2023-01-13T15:30:45.506Z,74.82
2023-01-13T15:34:33.189Z,74.90
2023-01-13T15:38:36.769Z,75.07
2023-01-13T15:42:38.981Z,75.16
2023-01-13T15:46:12.516Z,75.45
2023-01-13T15:50:12.162Z,75.16
2023-01-13T15:54:19.498Z,75.55
2023-01-13T15:58:11.210Z,75.40
2023-01-13T16:01:40.552Z,75.33
2023-01-13T16:05:37.457Z,75.15
2023-01-13T16:09:16.965Z,75.08
2023-01-13T16:13:26.395Z,75.23
2023-01-13T16:17:17.954Z,74.93
2023-01-13T16:20:47.480Z,74.47
2023-01-13T16:24:39.810Z,74.73
2023-01-13T16:29:31.035Z,74.65
2023-01-13T16:33:06.948Z,74.76
2023-01-13T16:37:23.498Z,74.43
2023-01-13T16:41:18.916Z,74.38
2023-01-13T16:45:08.489Z,74.40
2023-01-13T16:49:03.788Z,74.20
2023-01-13T16:53:07.492Z,74.43
2023-01-13T16:57:16.943Z,74.72
2023-01-13T17:01:13.308Z,74.43
2023-01-13T17:04:43.570Z,74.39
2023-01-13T17:07:57.924Z,73.65
2023-01-13T17:12:01.588Z,74.05
2023-01-13T17:16:02.029Z,73.48
2023-01-13T17:20:04.258Z,73.33
2023-01-13T17:23:45.928Z,72.79
2023-01-13T17:27:25.710Z,71.44
2023-01-13T17:31:33.168Z,71.87
2023-01-13T17:35:17.482Z,72.72
2023-01-13T17:39:26.537Z,72.78
2023-01-13T17:43:35.075Z,72.98
2023-01-13T17:48:09.682Z,73.19
2023-01-13T17:51:56.237Z,73.35
2023-01-13T17:56:02.129Z,73.44
2023-01-13T18:01:19.037Z,73.41
2023-01-13T18:05:21.593Z,73.20
2023-01-13T18:09:25.054Z,73.25
2023-01-13T18:13:17.709Z,73.45
2023-01-13T18:17:24.320Z,73.22
2023-01-13T18:21:15.889Z,73.19
2023-01-13T18:24:57.599Z,73.21
2023-01-13T18:29:00.125Z,72.86
2023-01-13T18:32:33.687Z,72.88
2023-01-13T18:36:27.332Z,72.72
2023-01-13T18:40:41.639Z,72.95
2023-01-13T18:44:10.252Z,73.09
2023-01-13T18:48:06.653Z,72.76
2023-01-13T18:52:04.915Z,72.77
2023-01-13T18:55:44.999Z,72.97
2023-01-13T18:59:20.316Z,73.03
2023-01-13T19:03:29.909Z,72.49
2023-01-13T19:17:22.016Z,72.15
2023-01-13T19:21:05.712Z,71.44
2023-01-13T19:24:44.937Z,71.94
2023-01-13T19:28:46.461Z,71.85
2023-01-13T19:32:29.755Z,71.74
2023-01-13T19:36:35.030Z,72.00
2023-01-13T19:40:43.605Z,72.10
2023-01-13T19:44:05.893Z,71.88
2023-01-13T19:47:59.437Z,72.29
2023-01-13T19:51:54.349Z,72.76
2023-01-13T19:55:37.049Z,73.16
2023-01-13T19:59:40.616Z,73.72
2023-01-13T20:03:31.023Z,73.63
2023-01-13T20:07:34.148Z,74.10
2023-01-13T20:11:18.180Z,73.94
2023-01-13T20:15:15.599Z,74.48
2023-01-13T20:18:58.178Z,74.53
2023-01-13T20:22:27.385Z,74.35
2023-01-13T20:26:23.995Z,74.37
2023-01-13T20:30:20.630Z,74.60
2023-01-13T20:34:22.942Z,74.67
2023-01-13T20:38:26.326Z,74.70
2023-01-13T20:42:25.003Z,74.53
2023-01-13T20:54:13.124Z,75.09
2023-01-13T20:57:51.719Z,75.16
2023-01-13T21:01:18.798Z,75.37
2023-01-13T21:04:59.270Z,75.36
2023-01-13T21:09:02.901Z,75.15
2023-01-13T21:13:05.032Z,75.29
2023-01-13T21:17:02.133Z,75.18
2023-01-13T21:21:32.175Z,75.27
2023-01-13T21:25:03.091Z,75.33
2023-01-13T21:28:37.965Z,75.07
2023-01-13T21:32:16.534Z,74.92
2023-01-13T21:36:20.508Z,74.65
2023-01-13T21:40:15.390Z,74.85
2023-01-13T21:44:17.300Z,74.74
2023-01-13T21:48:25.211Z,74.79
2023-01-13T21:52:27.751Z,74.81
2023-01-13T21:56:45.050Z,74.63
2023-01-13T22:00:50.737Z,74.84
2023-01-13T22:04:47.008Z,74.78
2023-01-13T22:08:56.632Z,74.76
2023-01-13T22:13:00.236Z,74.61
2023-01-13T22:16:51.991Z,74.78
2023-01-13T22:20:48.933Z,74.78
2023-01-13T22:24:36.114Z,74.54
2023-01-13T22:28:39.707Z,74.62
2023-01-13T22:32:32.945Z,74.42
2023-01-13T22:36:25.527Z,74.25
2023-01-13T22:40:03.502Z,74.31
2023-01-13T22:43:22.617Z,74.26
2023-01-13T22:47:02.069Z,74.28
2023-01-13T22:51:05.758Z,74.31
2023-01-13T22:55:07.008Z,74.28
2023-01-13T22:59:00.362Z,74.19
2023-01-13T23:03:00.199Z,74.07
2023-01-13T23:06:40.810Z,74.32
2023-01-13T23:10:09.268Z,74.20
2023-01-13T23:13:59.219Z,74.18
2023-01-13T23:17:04.531Z,74.09
2023-01-13T23:20:58.147Z,73.91
2023-01-13T23:24:53.816Z,74.13
2023-01-13T23:28:26.038Z,74.00
2023-01-13T23:32:30.182Z,73.80
2023-01-13T23:35:52.638Z,73.55
2023-01-13T23:39:05.631Z,73.85
2023-01-13T23:43:09.237Z,73.60
2023-01-13T23:47:11.663Z,73.73
2023-01-13T23:51:21.227Z,73.48
2023-01-13T23:55:26.314Z,73.40
2023-01-13T23:59:23.831Z,73.26
